CheckWX is a tool to help pilots better visualize weather data.  It is not intended as a substitute for an official pre-flight weather briefing.

07:10:16 UTC

KFLD METAR
Fond Du Lac County Airport
Fond Du Lac, Wisconsin, USA
Current

17 mins ago

KFLD 230653Z AUTO 28007KT 10SM OVC055 16/13 A2987 RMK AO2 SLP114 T01560133
Observed
Sep-23 @ 06:53 UTC
Wind
  • 280° at 7 KTS
Visibility
10 SM
Flight Rules
VFR
Cloud Levels
  • Overcast at 5,500' AGL
Temperature
16°C / 61°F
Dewpoint
13°C / 55°F
Humidity
83%
Altimeter
29.87" Hg
Pressure
1011.52 hPa
Previous

38 mins ago

KFLD 230632Z AUTO 28007KT 10SM FEW009 BKN050 BKN060 16/14 A2987 RMK AO2 T01560139
Observed
Sep-23 @ 06:32 UTC
Wind
  • 280° at 7 KTS
Visibility
10 SM
Flight Rules
VFR
Cloud Levels
  • Few at 900' AGL
  • Broken at 5,000' AGL
  • Broken at 6,000' AGL
Temperature
16°C / 61°F
Dewpoint
14°C / 57°F
Humidity
88%
Altimeter
29.87" Hg
Pressure
1011.52 hPa
Previous

1 hour ago

KFLD 230553Z AUTO 28008KT 10SM SCT014 BKN055 OVC100 17/15 A2986 RMK AO2 RAE14 SLP109 P0001 60015 T01670150 10200 20167 402330167 53012
Observed
Sep-23 @ 05:53 UTC
Wind
  • 280° at 8 KTS
Visibility
10 SM
Flight Rules
VFR
Cloud Levels
  • Scattered at 1,400' AGL
  • Broken at 5,500' AGL
  • Overcast at 10,000' AGL
Temperature
17°C / 63°F
Dewpoint
15°C / 59°F
Humidity
88%
Altimeter
29.86" Hg
Pressure
1011.22 hPa
Current Rain
0.01"